Time;durP1;ratioP1;P1;durP2;ratioP2;P2;SDS_P1;SDS_P2;PMS_P1;PMS_P2;Temp;Humidity;BMP_temperature;BMP_pressure;BME280_temperature;BME280_humidity;BME280_pressure;Samples;Min_cycle;Max_cycle;Signal;HPM_P1;HPM_P2
2022/10/09 00:02:15;;;;;;;;;;;21.00;64.70;;;;;;5018603;28;930;-68
2022/10/09 00:04:40;;;;;;;;;;;21.00;64.70;;;;;;5021146;28;853;-68
2022/10/09 00:07:06;;;;;;;;;;;21.00;64.70;;;;;;5020107;28;1362;-68
2022/10/09 00:09:31;;;;;;;;;;;21.00;64.70;;;;;;5023273;28;994;-68
2022/10/09 00:11:56;;;;;;;;;;;21.00;64.70;;;;;;5018565;28;1245;-68
2022/10/09 00:14:22;;;;;;;;;;;21.00;64.80;;;;;;5020195;28;1918;-67
2022/10/09 00:16:47;;;;;;;;;;;21.00;64.80;;;;;;5021338;28;1257;-67
2022/10/09 00:19:13;;;;;;;;;;;21.00;64.80;;;;;;5021209;28;920;-68
2022/10/09 00:21:38;;;;;;;;;;;20.90;64.70;;;;;;5021316;28;813;-67
2022/10/09 00:24:04;;;;;;;;;;;21.00;64.90;;;;;;5007359;28;916;-67
2022/10/09 00:26:29;;;;;;;;;;;20.90;64.80;;;;;;5000870;28;1301;-68
2022/10/09 00:28:55;;;;;;;;;;;21.00;64.90;;;;;;4996160;28;876;-68
2022/10/09 00:31:20;;;;;;;;;;;20.90;64.80;;;;;;5021579;28;1345;-68
2022/10/09 00:33:46;;;;;;;;;;;20.90;64.80;;;;;;5002643;28;1906;-68
2022/10/09 00:36:12;;;;;;;;;;;20.90;64.80;;;;;;5002604;28;920;-68
2022/10/09 00:38:37;;;;;;;;;;;20.90;64.80;;;;;;5016013;28;1279;-68
2022/10/09 00:41:03;;;;;;;;;;;20.90;64.80;;;;;;5018395;28;829;-68
2022/10/09 00:43:48;;;;;;;;;;;20.90;64.90;;;;;;5020170;28;828;-68
2022/10/09 00:46:23;;;;;;;;;;;20.90;64.90;;;;;;5004217;28;911;-67
2022/10/09 00:48:50;;;;;;;;;;;20.90;64.90;;;;;;5002673;28;923;-68
2022/10/09 00:51:16;;;;;;;;;;;20.90;64.90;;;;;;5019894;28;1050;-67
2022/10/09 00:53:41;;;;;;;;;;;20.90;64.90;;;;;;5003380;28;2003;-67
2022/10/09 00:56:07;;;;;;;;;;;20.90;64.90;;;;;;5001821;28;1062;-68
2022/10/09 00:58:32;;;;;;;;;;;20.90;64.90;;;;;;5020986;28;1292;-67
2022/10/09 01:00:58;;;;;;;;;;;20.90;65.00;;;;;;5008953;28;832;-68
2022/10/09 01:03:23;;;;;;;;;;;20.90;65.00;;;;;;5018441;28;1031;-68
2022/10/09 01:06:07;;;;;;;;;;;20.90;65.00;;;;;;5018937;28;1030;-67
2022/10/09 01:08:36;;;;;;;;;;;20.90;65.00;;;;;;5017232;28;1369;-67
2022/10/09 01:11:14;;;;;;;;;;;20.90;65.10;;;;;;5003227;28;1338;-67
2022/10/09 01:13:56;;;;;;;;;;;20.90;65.10;;;;;;5004396;28;1959;-67
2022/10/09 01:16:23;;;;;;;;;;;20.90;65.00;;;;;;5005756;28;1327;-68
2022/10/09 01:19:07;;;;;;;;;;;20.90;65.80;;;;;;5002640;28;928;-68
2022/10/09 01:21:34;;;;;;;;;;;20.90;65.10;;;;;;5022277;28;817;-67
2022/10/09 01:24:26;;;;;;;;;;;20.90;65.10;;;;;;5006097;28;1336;-68
2022/10/09 01:26:58;;;;;;;;;;;20.90;65.10;;;;;;5015584;28;1438;-67
2022/10/09 01:29:24;;;;;;;;;;;20.90;65.10;;;;;;5018098;28;1057;-67
2022/10/09 01:31:49;;;;;;;;;;;20.90;65.10;;;;;;5016583;28;1057;-67
2022/10/09 01:34:15;;;;;;;;;;;20.90;65.10;;;;;;5005045;28;1972;-67
2022/10/09 01:36:41;;;;;;;;;;;20.90;65.20;;;;;;5000329;28;1338;-67
2022/10/09 01:39:06;;;;;;;;;;;20.90;65.20;;;;;;5001443;28;1027;-67
2022/10/09 01:41:32;;;;;;;;;;;20.90;65.20;;;;;;4998300;28;955;-68
2022/10/09 01:43:57;;;;;;;;;;;20.90;65.20;;;;;;5015290;28;942;-68
2022/10/09 01:46:23;;;;;;;;;;;20.90;65.20;;;;;;5006912;28;1269;-68
2022/10/09 01:48:55;;;;;;;;;;;20.90;65.30;;;;;;5004147;28;825;-67
2022/10/09 01:51:21;;;;;;;;;;;20.90;65.20;;;;;;4999079;28;1474;-68
2022/10/09 01:53:46;;;;;;;;;;;20.90;65.20;;;;;;5001604;28;1902;-68
2022/10/09 01:56:13;;;;;;;;;;;20.90;65.20;;;;;;5004151;28;800;-68
2022/10/09 01:58:40;;;;;;;;;;;20.90;65.20;;;;;;5009202;28;1292;-68
2022/10/09 02:01:10;;;;;;;;;;;20.90;65.20;;;;;;5004198;28;876;-68
2022/10/09 02:03:35;;;;;;;;;;;20.90;65.20;;;;;;5001703;28;951;-67
2022/10/09 02:06:02;;;;;;;;;;;20.90;65.20;;;;;;5013840;28;967;-68
2022/10/09 02:08:28;;;;;;;;;;;20.90;65.20;;;;;;5017890;28;1379;-68
2022/10/09 02:10:54;;;;;;;;;;;20.90;65.20;;;;;;5006426;28;860;-67
2022/10/09 02:13:19;;;;;;;;;;;20.90;65.30;;;;;;5002729;28;824;-68
2022/10/09 02:16:03;;;;;;;;;;;20.90;65.30;;;;;;5023034;28;1918;-68
2022/10/09 02:18:42;;;;;;;;;;;20.90;65.30;;;;;;5021237;28;1271;-68
2022/10/09 02:21:28;;;;;;;;;;;20.90;65.30;;;;;;5004997;28;907;-68
2022/10/09 02:23:53;;;;;;;;;;;20.90;65.30;;;;;;5007299;28;1102;-68
2022/10/09 02:26:19;;;;;;;;;;;20.90;65.30;;;;;;5007413;28;1066;-68
2022/10/09 02:28:44;;;;;;;;;;;20.90;65.40;;;;;;5026610;28;1489;-68
2022/10/09 02:31:11;;;;;;;;;;;20.90;65.30;;;;;;5009613;28;1058;-68
2022/10/09 02:33:36;;;;;;;;;;;20.90;65.40;;;;;;5012029;28;943;-68
2022/10/09 02:36:02;;;;;;;;;;;20.90;65.40;;;;;;5018104;28;1902;-68
2022/10/09 02:38:27;;;;;;;;;;;20.90;66.20;;;;;;5023379;28;1275;-68
2022/10/09 02:40:56;;;;;;;;;;;20.90;65.50;;;;;;5025063;28;919;-68
2022/10/09 02:43:21;;;;;;;;;;;20.90;65.40;;;;;;5022503;28;1093;-68
2022/10/09 02:45:47;;;;;;;;;;;20.90;65.40;;;;;;5019140;28;1030;-68
2022/10/09 02:48:12;;;;;;;;;;;20.90;65.40;;;;;;5009286;28;1318;-68
2022/10/09 02:50:37;;;;;;;;;;;20.90;65.50;;;;;;5022015;28;843;-68
2022/10/09 02:53:03;;;;;;;;;;;20.90;65.50;;;;;;5008534;28;1096;-68
2022/10/09 02:55:28;;;;;;;;;;;20.90;65.50;;;;;;5021650;28;1971;-67
2022/10/09 02:57:54;;;;;;;;;;;20.90;65.50;;;;;;5020800;28;1255;-68
2022/10/09 03:00:19;;;;;;;;;;;20.90;65.50;;;;;;5020956;28;965;-68
2022/10/09 03:02:45;;;;;;;;;;;20.90;65.50;;;;;;5006092;28;1375;-68
2022/10/09 03:05:10;;;;;;;;;;;20.90;65.50;;;;;;5016385;28;884;-67
2022/10/09 03:07:35;;;;;;;;;;;20.90;65.50;;;;;;5022020;28;1252;-68
2022/10/09 03:10:01;;;;;;;;;;;20.90;65.50;;;;;;5019609;28;982;-67
2022/10/09 03:12:26;;;;;;;;;;;20.90;65.50;;;;;;5018069;28;1033;-67
2022/10/09 03:14:52;;;;;;;;;;;20.90;65.50;;;;;;5021347;28;1906;-67
2022/10/09 03:17:17;;;;;;;;;;;20.90;65.50;;;;;;5020043;28;1349;-67
2022/10/09 03:19:43;;;;;;;;;;;20.90;65.50;;;;;;5018692;28;1026;-68
2022/10/09 03:22:08;;;;;;;;;;;20.90;65.40;;;;;;5020728;28;848;-67
2022/10/09 03:24:33;;;;;;;;;;;21.00;65.40;;;;;;5022808;28;855;-67
2022/10/09 03:26:59;;;;;;;;;;;21.00;65.30;;;;;;5021903;28;1351;-68
2022/10/09 03:29:24;;;;;;;;;;;21.00;65.30;;;;;;5023741;28;883;-67
2022/10/09 03:31:50;;;;;;;;;;;21.00;65.10;;;;;;5020789;28;1050;-67
2022/10/09 03:34:15;;;;;;;;;;;21.10;65.10;;;;;;5020219;28;1926;-68
2022/10/09 03:36:41;;;;;;;;;;;21.10;65.00;;;;;;5017913;28;1273;-67
2022/10/09 03:39:06;;;;;;;;;;;21.10;64.90;;;;;;5021636;28;850;-68
2022/10/09 03:41:32;;;;;;;;;;;21.10;64.80;;;;;;5018985;28;911;-68
2022/10/09 03:43:57;;;;;;;;;;;21.10;64.80;;;;;;5022111;28;879;-67
2022/10/09 03:46:23;;;;;;;;;;;21.20;64.70;;;;;;5020186;28;1271;-67
2022/10/09 03:48:48;;;;;;;;;;;21.20;64.60;;;;;;5019312;28;1049;-68
2022/10/09 03:51:13;;;;;;;;;;;21.20;64.60;;;;;;5016973;28;1027;-68
2022/10/09 03:53:39;;;;;;;;;;;21.20;64.60;;;;;;5019870;28;1014;-68
2022/10/09 03:56:04;;;;;;;;;;;21.20;64.50;;;;;;5019325;28;1957;-68
2022/10/09 03:58:30;;;;;;;;;;;21.20;64.50;;;;;;5020512;28;1245;-68
2022/10/09 04:00:55;;;;;;;;;;;21.30;64.50;;;;;;5018802;28;876;-68
2022/10/09 04:03:21;;;;;;;;;;;21.30;64.50;;;;;;5018971;28;880;-67
2022/10/09 04:05:46;;;;;;;;;;;21.30;64.40;;;;;;5020408;28;958;-67
2022/10/09 04:08:12;;;;;;;;;;;21.30;64.40;;;;;;5006188;28;1216;-68
2022/10/09 04:10:37;;;;;;;;;;;21.30;64.30;;;;;;5003059;28;1007;-67
2022/10/09 04:13:03;;;;;;;;;;;21.30;64.10;;;;;;5017559;28;792;-68
2022/10/09 04:15:28;;;;;;;;;;;21.40;64.10;;;;;;5020920;28;1902;-68
2022/10/09 04:17:54;;;;;;;;;;;21.50;64.00;;;;;;5020679;28;1326;-68
2022/10/09 04:20:20;;;;;;;;;;;21.60;64.00;;;;;;5024368;28;860;-68
2022/10/09 04:22:45;;;;;;;;;;;21.70;63.80;;;;;;5019660;28;849;-68
2022/10/09 04:25:11;;;;;;;;;;;21.80;63.60;;;;;;5018938;28;1232;-67
2022/10/09 04:27:36;;;;;;;;;;;21.80;63.30;;;;;;5020129;28;1367;-67
2022/10/09 04:30:02;;;;;;;;;;;22.00;63.20;;;;;;5022811;28;784;-67
2022/10/09 04:32:27;;;;;;;;;;;22.00;62.90;;;;;;5019963;28;1396;-67
2022/10/09 04:34:53;;;;;;;;;;;22.10;62.70;;;;;;5018037;28;1958;-67
2022/10/09 04:37:18;;;;;;;;;;;22.10;62.30;;;;;;5023337;28;1243;-67
2022/10/09 04:39:44;;;;;;;;;;;22.20;62.20;;;;;;5019618;28;840;-68
2022/10/09 04:42:09;;;;;;;;;;;22.20;62.00;;;;;;5016157;28;792;-67
2022/10/09 04:44:35;;;;;;;;;;;22.30;62.00;;;;;;5019758;28;792;-68
2022/10/09 04:47:00;;;;;;;;;;;22.30;61.80;;;;;;5017622;28;1259;-68
2022/10/09 04:49:26;;;;;;;;;;;22.30;61.70;;;;;;5000830;28;957;-68
2022/10/09 04:51:51;;;;;;;;;;;22.30;61.60;;;;;;5018868;28;837;-68
2022/10/09 04:54:17;;;;;;;;;;;22.30;61.50;;;;;;5019182;28;1965;-69
2022/10/09 04:56:42;;;;;;;;;;;22.40;61.50;;;;;;5002389;28;2061;-68
2022/10/09 04:59:07;;;;;;;;;;;22.40;61.50;;;;;;5007180;28;4644;-68
2022/10/09 05:01:33;;;;;;;;;;;22.40;61.40;;;;;;5015882;28;4943;-68
2022/10/09 05:03:58;;;;;;;;;;;22.40;61.40;;;;;;5016198;28;848;-68
2022/10/09 05:06:24;;;;;;;;;;;22.40;61.40;;;;;;5002515;28;1593;-68
2022/10/09 05:08:50;;;;;;;;;;;22.40;61.40;;;;;;5018061;28;1006;-68
2022/10/09 05:11:20;;;;;;;;;;;22.40;61.40;;;;;;4983103;28;1216;-68
2022/10/09 05:13:46;;;;;;;;;;;22.40;61.40;;;;;;5014912;28;837;-68
2022/10/09 05:16:13;;;;;;;;;;;22.40;61.50;;;;;;4995768;28;1895;-69
2022/10/09 05:18:43;;;;;;;;;;;22.30;61.40;;;;;;4999150;28;1315;-69
2022/10/09 05:21:08;;;;;;;;;;;22.30;61.50;;;;;;5020649;28;896;-68
2022/10/09 05:23:34;;;;;;;;;;;22.30;61.50;;;;;;4987987;28;1537;-68
2022/10/09 05:26:00;;;;;;;;;;;22.30;61.60;;;;;;5021755;28;844;-68
2022/10/09 05:28:26;;;;;;;;;;;22.30;61.70;;;;;;5007193;28;1448;-69
2022/10/09 05:30:51;;;;;;;;;;;22.30;61.80;;;;;;5002356;28;1039;-68
2022/10/09 05:33:17;;;;;;;;;;;22.30;61.80;;;;;;4997090;28;1330;-68
2022/10/09 05:35:55;;;;;;;;;;;22.20;61.80;;;;;;4999065;28;1910;-68
2022/10/09 05:38:21;;;;;;;;;;;22.20;61.90;;;;;;5002000;28;1216;-68
2022/10/09 05:41:05;;;;;;;;;;;22.20;62.00;;;;;;5019021;28;828;-68
2022/10/09 05:43:31;;;;;;;;;;;22.20;62.00;;;;;;4997972;28;887;-68
2022/10/09 05:46:03;;;;;;;;;;;22.20;62.10;;;;;;5016288;28;805;-68
2022/10/09 05:48:28;;;;;;;;;;;22.20;62.20;;;;;;5016004;28;1225;-69
2022/10/09 05:51:04;;;;;;;;;;;22.20;62.20;;;;;;5019079;28;876;-69
2022/10/09 05:53:29;;;;;;;;;;;22.10;62.10;;;;;;5019368;28;908;-69
2022/10/09 05:55:54;;;;;;;;;;;22.10;62.20;;;;;;5014982;28;1973;-68
2022/10/09 05:58:20;;;;;;;;;;;22.10;62.30;;;;;;5017342;28;1280;-69
2022/10/09 06:00:45;;;;;;;;;;;22.10;62.40;;;;;;5017866;28;895;-69
2022/10/09 06:03:11;;;;;;;;;;;22.10;62.40;;;;;;5018952;28;781;-69
2022/10/09 06:05:36;;;;;;;;;;;22.10;62.40;;;;;;5019681;28;863;-69
2022/10/09 06:08:02;;;;;;;;;;;22.10;62.40;;;;;;5019156;28;1232;-69
2022/10/09 06:10:27;;;;;;;;;;;22.10;62.80;;;;;;5019350;28;894;-69
2022/10/09 06:12:54;;;;;;;;;;;22.00;62.80;;;;;;5021574;28;1115;-69
2022/10/09 06:15:19;;;;;;;;;;;22.00;62.70;;;;;;5002423;28;1906;-69
2022/10/09 06:17:44;;;;;;;;;;;22.00;62.80;;;;;;5005536;28;1428;-68
2022/10/09 06:20:10;;;;;;;;;;;22.00;62.70;;;;;;5019378;28;851;-69
2022/10/09 06:22:35;;;;;;;;;;;22.00;62.80;;;;;;5021354;28;848;-68
2022/10/09 06:25:01;;;;;;;;;;;22.00;62.80;;;;;;5017114;28;876;-68
2022/10/09 06:27:26;;;;;;;;;;;22.00;62.90;;;;;;5017724;28;1424;-68
2022/10/09 06:29:52;;;;;;;;;;;22.00;62.90;;;;;;5015239;28;1388;-69
2022/10/09 06:32:17;;;;;;;;;;;21.90;62.80;;;;;;5017664;28;1341;-69
2022/10/09 06:34:43;;;;;;;;;;;21.90;62.90;;;;;;5014371;28;1902;-68
2022/10/09 06:37:08;;;;;;;;;;;21.90;63.00;;;;;;5019482;28;1775;-68
2022/10/09 06:39:33;;;;;;;;;;;21.90;63.00;;;;;;5019938;28;902;-68
2022/10/09 06:41:59;;;;;;;;;;;21.90;63.10;;;;;;5015846;28;907;-68
2022/10/09 06:44:24;;;;;;;;;;;21.90;63.10;;;;;;5005215;28;881;-67
2022/10/09 06:46:50;;;;;;;;;;;21.90;63.20;;;;;;5018907;28;1340;-68
2022/10/09 06:49:15;;;;;;;;;;;21.90;63.20;;;;;;5017704;28;872;-68
2022/10/09 06:51:41;;;;;;;;;;;21.80;63.10;;;;;;5018222;28;844;-68
2022/10/09 06:54:10;;;;;;;;;;;21.80;63.20;;;;;;5019163;28;1890;-68
2022/10/09 06:56:35;;;;;;;;;;;21.80;63.20;;;;;;5010839;28;1241;-69
2022/10/09 06:59:01;;;;;;;;;;;21.80;63.30;;;;;;5020795;28;751;-69
2022/10/09 07:01:30;;;;;;;;;;;21.80;63.30;;;;;;5022472;28;812;-69
2022/10/09 07:04:16;;;;;;;;;;;21.80;63.40;;;;;;5005456;28;892;-68
2022/10/09 07:06:42;;;;;;;;;;;21.80;63.50;;;;;;5019678;28;1287;-68
2022/10/09 07:09:09;;;;;;;;;;;21.80;63.80;;;;;;5001294;28;843;-67
2022/10/09 07:11:35;;;;;;;;;;;21.80;64.10;;;;;;5003381;28;918;-68
2022/10/09 07:14:01;;;;;;;;;;;21.80;65.00;;;;;;5004083;28;1959;-68
2022/10/09 07:16:27;;;;;;;;;;;21.90;64.40;;;;;;5006239;28;1288;-69
2022/10/09 07:18:52;;;;;;;;;;;21.90;64.40;;;;;;5020433;28;1860;-69
2022/10/09 07:21:18;;;;;;;;;;;21.90;64.40;;;;;;5020013;28;1470;-69
2022/10/09 07:23:44;;;;;;;;;;;21.90;64.50;;;;;;5027088;28;1368;-68
2022/10/09 07:26:15;;;;;;;;;;;21.90;64.50;;;;;;5019583;28;919;-68
2022/10/09 07:28:41;;;;;;;;;;;21.90;64.60;;;;;;5020632;28;1391;-68
2022/10/09 07:31:06;;;;;;;;;;;21.90;64.60;;;;;;5018524;28;879;-68
2022/10/09 07:33:32;;;;;;;;;;;21.90;64.70;;;;;;5021113;28;1566;-68
2022/10/09 07:35:58;;;;;;;;;;;21.90;64.70;;;;;;5007258;28;1902;-68
2022/10/09 07:38:23;;;;;;;;;;;21.90;64.70;;;;;;5018276;28;1241;-69
2022/10/09 07:40:49;;;;;;;;;;;21.90;64.70;;;;;;5018494;28;1030;-68
2022/10/09 07:43:15;;;;;;;;;;;21.90;64.80;;;;;;5005534;28;1042;-67
2022/10/09 07:45:40;;;;;;;;;;;21.90;64.90;;;;;;5023449;28;837;-68
2022/10/09 07:48:05;;;;;;;;;;;21.90;64.90;;;;;;5004416;28;1446;-68
2022/10/09 07:50:31;;;;;;;;;;;21.90;65.10;;;;;;5021078;28;955;-68
2022/10/09 07:52:56;;;;;;;;;;;21.90;65.10;;;;;;5021049;28;871;-68
2022/10/09 07:55:22;;;;;;;;;;;21.90;65.20;;;;;;5017258;28;1959;-68
2022/10/09 07:57:47;;;;;;;;;;;21.90;65.20;;;;;;5018153;28;1236;-68
2022/10/09 08:00:13;;;;;;;;;;;21.90;65.30;;;;;;5020530;28;1034;-68
2022/10/09 08:02:38;;;;;;;;;;;21.90;65.30;;;;;;5020495;28;1068;-68
2022/10/09 08:05:04;;;;;;;;;;;21.90;65.50;;;;;;5021125;28;899;-68
2022/10/09 08:07:29;;;;;;;;;;;21.90;65.50;;;;;;5020949;28;1351;-68
2022/10/09 08:09:54;;;;;;;;;;;21.90;65.40;;;;;;5020836;28;898;-68
2022/10/09 08:12:20;;;;;;;;;;;21.90;65.50;;;;;;5023346;28;891;-67
2022/10/09 08:14:47;;;;;;;;;;;21.90;65.50;;;;;;5017057;28;1914;-67
2022/10/09 08:17:13;;;;;;;;;;;21.90;65.60;;;;;;5022007;28;1271;-68
2022/10/09 08:19:39;;;;;;;;;;;21.90;65.60;;;;;;5017532;28;1018;-68
2022/10/09 08:22:04;;;;;;;;;;;21.90;65.60;;;;;;5019748;28;1033;-67
2022/10/09 08:24:30;;;;;;;;;;;22.00;65.50;;;;;;5020334;28;1034;-67
2022/10/09 08:26:55;;;;;;;;;;;22.00;65.50;;;;;;5018649;28;1354;-68
2022/10/09 08:29:20;;;;;;;;;;;22.00;65.40;;;;;;5018363;28;1014;-68
2022/10/09 08:31:46;;;;;;;;;;;22.00;65.50;;;;;;5003855;28;1383;-67
2022/10/09 08:34:11;;;;;;;;;;;22.00;65.50;;;;;;5019362;28;1949;-68
2022/10/09 08:36:37;;;;;;;;;;;22.00;65.50;;;;;;5021061;28;1357;-67
2022/10/09 08:39:02;;;;;;;;;;;22.00;65.50;;;;;;5003129;28;924;-68
2022/10/09 08:41:31;;;;;;;;;;;22.00;65.50;;;;;;5023416;28;872;-68
2022/10/09 08:44:00;;;;;;;;;;;22.00;65.60;;;;;;5019048;28;1077;-68
2022/10/09 08:46:46;;;;;;;;;;;22.00;65.70;;;;;;5007675;28;1225;-68
2022/10/09 08:49:18;;;;;;;;;;;22.00;65.70;;;;;;5019831;28;1082;-68
2022/10/09 08:51:45;;;;;;;;;;;22.00;65.70;;;;;;5009461;28;805;-69
2022/10/09 08:54:17;;;;;;;;;;;22.00;65.80;;;;;;5023092;28;1890;-68
2022/10/09 08:56:43;;;;;;;;;;;22.00;65.90;;;;;;5017381;28;1339;-68
2022/10/09 08:59:09;;;;;;;;;;;22.00;65.90;;;;;;5002380;28;1054;-68
2022/10/09 09:01:38;;;;;;;;;;;22.00;65.90;;;;;;5000671;28;1105;-68
2022/10/09 09:04:14;;;;;;;;;;;22.00;66.00;;;;;;5008415;28;912;-67
2022/10/09 09:06:46;;;;;;;;;;;22.00;66.10;;;;;;5003298;28;1366;-68
2022/10/09 09:09:18;;;;;;;;;;;22.00;66.30;;;;;;5003748;28;848;-66
2022/10/09 09:11:53;;;;;;;;;;;22.00;66.40;;;;;;5001398;28;915;-67
2022/10/09 09:14:37;;;;;;;;;;;22.00;66.40;;;;;;5020003;28;1906;-68
2022/10/09 09:17:06;;;;;;;;;;;22.00;66.60;;;;;;5003632;28;1314;-68
2022/10/09 09:19:46;;;;;;;;;;;22.00;66.50;;;;;;5002062;28;1023;-68
2022/10/09 09:22:12;;;;;;;;;;;22.10;66.90;;;;;;5017116;28;939;-67
2022/10/09 09:24:43;;;;;;;;;;;22.10;67.10;;;;;;5005974;28;924;-69
2022/10/09 09:27:10;;;;;;;;;;;22.10;67.20;;;;;;5017676;28;1287;-68
2022/10/09 09:29:38;;;;;;;;;;;22.10;67.40;;;;;;5003407;28;850;-69
2022/10/09 09:32:03;;;;;;;;;;;22.10;67.40;;;;;;5002273;28;1392;-68
2022/10/09 09:34:39;;;;;;;;;;;22.10;67.60;;;;;;5005738;28;1965;-67
2022/10/09 09:37:04;;;;;;;;;;;22.10;67.60;;;;;;4994996;28;1326;-68
2022/10/09 09:39:30;;;;;;;;;;;22.10;67.80;;;;;;5008102;28;1011;-69
2022/10/09 09:42:00;;;;;;;;;;;22.10;68.00;;;;;;5002408;28;800;-69
2022/10/09 09:44:25;;;;;;;;;;;22.10;68.10;;;;;;5029253;28;1085;-68
2022/10/09 09:46:51;;;;;;;;;;;22.10;68.30;;;;;;5013895;28;1268;-68
2022/10/09 09:49:20;;;;;;;;;;;22.10;68.30;;;;;;5022692;28;1014;-68
2022/10/09 09:51:46;;;;;;;;;;;22.10;68.30;;;;;;5008141;28;927;-69
2022/10/09 09:54:19;;;;;;;;;;;22.10;68.40;;;;;;5008789;28;1953;-69
2022/10/09 09:56:44;;;;;;;;;;;22.10;68.30;;;;;;5004681;28;1291;-69
2022/10/09 09:59:36;;;;;;;;;;;22.10;68.20;;;;;;5001877;28;861;-68
2022/10/09 10:02:04;;;;;;;;;;;22.00;68.20;;;;;;5024311;28;1287;-68
2022/10/09 10:04:30;;;;;;;;;;;22.10;68.00;;;;;;5030537;28;1810;-67
2022/10/09 10:06:55;;;;;;;;;;;22.20;67.90;;;;;;5030270;28;1993;-68
2022/10/09 10:09:21;;;;;;;;;;;22.20;67.70;;;;;;5010881;28;1554;-68
2022/10/09 10:11:57;;;;;;;;;;;22.20;67.40;;;;;;5014183;28;924;-68
2022/10/09 10:14:22;;;;;;;;;;;22.30;67.40;;;;;;5001665;28;1953;-68
2022/10/09 10:16:48;;;;;;;;;;;22.30;67.10;;;;;;5004085;28;1351;-68
2022/10/09 10:19:20;;;;;;;;;;;22.30;67.10;;;;;;5003976;28;1023;-68
2022/10/09 10:21:47;;;;;;;;;;;22.30;67.10;;;;;;5026678;28;1076;-68
2022/10/09 10:24:14;;;;;;;;;;;22.30;66.90;;;;;;5014847;28;887;-68
2022/10/09 10:26:47;;;;;;;;;;;22.30;66.90;;;;;;5001322;28;1207;-68
2022/10/09 10:29:12;;;;;;;;;;;22.30;66.80;;;;;;5004684;28;828;-68
2022/10/09 10:31:41;;;;;;;;;;;22.30;66.90;;;;;;5026516;28;907;-69
2022/10/09 10:34:07;;;;;;;;;;;22.30;66.80;;;;;;5028942;28;1894;-67
2022/10/09 10:36:33;;;;;;;;;;;22.40;66.90;;;;;;5005036;28;1255;-67
2022/10/09 10:39:10;;;;;;;;;;;22.30;67.10;;;;;;5008114;28;1022;-68
2022/10/09 10:41:36;;;;;;;;;;;22.30;67.50;;;;;;5024817;28;921;-68
2022/10/09 10:44:17;;;;;;;;;;;22.30;67.30;;;;;;5006639;28;812;-68
2022/10/09 10:46:47;;;;;;;;;;;22.30;67.40;;;;;;5023073;28;1851;-66
2022/10/09 10:49:13;;;;;;;;;;;22.20;67.50;;;;;;5024523;28;1413;-67
2022/10/09 10:51:42;;;;;;;;;;;22.20;67.60;;;;;;5009073;28;1389;-68
2022/10/09 10:54:17;;;;;;;;;;;22.20;67.70;;;;;;5008239;28;1886;-67
2022/10/09 10:56:42;;;;;;;;;;;22.20;67.80;;;;;;5023254;28;1271;-67
2022/10/09 10:59:26;;;;;;;;;;;22.20;68.00;;;;;;5019857;28;868;-67
2022/10/09 11:02:07;;;;;;;;;;;22.10;68.00;;;;;;5024221;28;899;-66
2022/10/09 11:05:04;;;;;;;;;;;22.10;68.10;;;;;;5020753;28;891;-67
2022/10/09 11:07:35;;;;;;;;;;;22.10;68.20;;;;;;4964285;28;1297;-67
2022/10/09 11:10:07;;;;;;;;;;;22.10;68.10;;;;;;5007434;28;871;-66
2022/10/09 11:12:32;;;;;;;;;;;22.10;68.20;;;;;;5024280;28;932;-67
2022/10/09 11:15:07;;;;;;;;;;;22.10;68.30;;;;;;5023538;28;1949;-67
2022/10/09 11:17:43;;;;;;;;;;;22.10;68.30;;;;;;5004545;28;1602;-66
2022/10/09 11:20:29;;;;;;;;;;;22.10;68.50;;;;;;5002349;28;836;-67
2022/10/09 11:23:13;;;;;;;;;;;22.10;68.50;;;;;;5003396;28;995;-67
2022/10/09 11:25:41;;;;;;;;;;;22.10;68.70;;;;;;5019421;28;827;-67
2022/10/09 11:28:09;;;;;;;;;;;22.00;68.50;;;;;;5005670;28;1407;-67
2022/10/09 11:30:36;;;;;;;;;;;22.00;68.60;;;;;;5023420;28;1124;-66
2022/10/09 11:33:16;;;;;;;;;;;22.10;68.60;;;;;;5006415;28;1377;-66
2022/10/09 11:35:46;;;;;;;;;;;22.10;68.60;;;;;;5009943;28;1910;-66
2022/10/09 11:38:28;;;;;;;;;;;22.10;68.60;;;;;;5020185;28;1264;-67
2022/10/09 11:40:54;;;;;;;;;;;22.10;68.50;;;;;;5021526;28;813;-66
2022/10/09 11:43:19;;;;;;;;;;;22.10;68.50;;;;;;5006475;28;898;-66
2022/10/09 11:45:47;;;;;;;;;;;22.10;68.50;;;;;;5019503;28;813;-66
2022/10/09 11:48:31;;;;;;;;;;;22.10;68.60;;;;;;5003772;28;1268;-67
2022/10/09 11:50:58;;;;;;;;;;;22.10;68.50;;;;;;5018620;28;812;-66
2022/10/09 11:53:24;;;;;;;;;;;22.10;68.70;;;;;;5003651;28;831;-67
2022/10/09 11:55:59;;;;;;;;;;;22.00;68.50;;;;;;5019996;28;1894;-68
2022/10/09 11:58:25;;;;;;;;;;;22.00;68.70;;;;;;5020648;28;1247;-67
2022/10/09 12:00:52;;;;;;;;;;;22.00;68.60;;;;;;5020365;28;907;-68
2022/10/09 12:03:21;;;;;;;;;;;22.00;68.80;;;;;;5005873;28;2256;-66
2022/10/09 12:05:47;;;;;;;;;;;22.00;69.20;;;;;;5002165;28;1394;-66
2022/10/09 12:08:13;;;;;;;;;;;22.00;66.50;;;;;;5005529;28;1275;-66
2022/10/09 12:10:58;;;;;;;;;;;21.90;64.00;;;;;;5001937;28;1010;-66
2022/10/09 12:13:43;;;;;;;;;;;21.90;61.40;;;;;;5004307;28;994;-66
2022/10/09 12:16:10;;;;;;;;;;;21.80;60.50;;;;;;5005861;28;1907;-66
2022/10/09 12:18:37;;;;;;;;;;;21.80;60.20;;;;;;5006344;28;1355;-66
2022/10/09 12:21:03;;;;;;;;;;;21.70;59.50;;;;;;5023459;28;1331;-66
2022/10/09 12:23:30;;;;;;;;;;;21.70;59.60;;;;;;5010933;28;1349;-66
2022/10/09 12:25:55;;;;;;;;;;;21.70;58.80;;;;;;5002625;28;1457;-66
2022/10/09 12:28:26;;;;;;;;;;;21.60;58.30;;;;;;4997269;28;1393;-66
2022/10/09 12:30:52;;;;;;;;;;;21.60;58.50;;;;;;4994338;28;1217;-66
2022/10/09 12:33:20;;;;;;;;;;;21.60;58.30;;;;;;5000813;28;1090;-66
2022/10/09 12:35:45;;;;;;;;;;;21.60;58.10;;;;;;5011786;28;1933;-65
2022/10/09 12:38:21;;;;;;;;;;;21.60;57.80;;;;;;5020525;28;1355;-66
2022/10/09 12:40:47;;;;;;;;;;;21.50;57.70;;;;;;5000186;28;1817;-66
2022/10/09 12:43:14;;;;;;;;;;;21.50;57.70;;;;;;5013226;28;1322;-66
2022/10/09 12:45:43;;;;;;;;;;;21.50;57.40;;;;;;5002472;28;1459;-66
2022/10/09 12:48:09;;;;;;;;;;;21.40;57.20;;;;;;5006687;28;1690;-66
2022/10/09 12:50:35;;;;;;;;;;;21.40;57.00;;;;;;5002155;28;994;-66
2022/10/09 12:53:01;;;;;;;;;;;21.40;56.90;;;;;;5016572;28;884;-66
2022/10/09 12:55:30;;;;;;;;;;;21.40;57.10;;;;;;5018340;28;1984;-66
2022/10/09 12:57:57;;;;;;;;;;;21.40;57.20;;;;;;5019797;28;1423;-66
2022/10/09 13:00:23;;;;;;;;;;;21.40;56.80;;;;;;5003519;28;1367;-66
2022/10/09 13:02:48;;;;;;;;;;;21.30;56.40;;;;;;5017481;28;983;-65
2022/10/09 13:05:13;;;;;;;;;;;21.30;56.50;;;;;;5017882;28;2253;-66
2022/10/09 13:07:39;;;;;;;;;;;21.30;56.90;;;;;;5017475;28;1578;-65
2022/10/09 13:10:22;;;;;;;;;;;21.30;56.50;;;;;;5019893;28;1439;-66
2022/10/09 13:12:51;;;;;;;;;;;21.30;56.40;;;;;;5019840;28;1243;-68
2022/10/09 13:15:26;;;;;;;;;;;21.30;56.90;;;;;;5002988;28;2006;-67
2022/10/09 13:17:51;;;;;;;;;;;21.30;57.00;;;;;;5018339;28;1865;-67
2022/10/09 13:20:17;;;;;;;;;;;21.30;56.30;;;;;;5018314;28;1215;-67
2022/10/09 13:22:52;;;;;;;;;;;21.20;56.50;;;;;;5014593;28;1108;-67
2022/10/09 13:25:17;;;;;;;;;;;21.20;56.40;;;;;;5009977;28;944;-67
2022/10/09 13:27:43;;;;;;;;;;;21.20;56.20;;;;;;5021037;28;1297;-67
2022/10/09 13:30:09;;;;;;;;;;;21.20;56.10;;;;;;5018581;28;908;-67
2022/10/09 13:32:34;;;;;;;;;;;21.20;55.80;;;;;;4998639;28;1149;-67
2022/10/09 13:35:00;;;;;;;;;;;21.20;56.10;;;;;;5016766;28;1914;-67
2022/10/09 13:37:25;;;;;;;;;;;21.20;55.90;;;;;;5018323;28;1275;-67
2022/10/09 13:39:51;;;;;;;;;;;21.20;56.30;;;;;;5017145;28;941;-67
2022/10/09 13:42:17;;;;;;;;;;;21.10;56.50;;;;;;5004436;28;1100;-67
2022/10/09 13:44:42;;;;;;;;;;;21.20;56.70;;;;;;5020603;28;2131;-67
2022/10/09 13:47:08;;;;;;;;;;;21.20;56.70;;;;;;5020441;28;1553;-68
2022/10/09 13:49:33;;;;;;;;;;;21.20;56.60;;;;;;5001805;28;1150;-67
2022/10/09 13:51:59;;;;;;;;;;;21.10;57.10;;;;;;5016765;28;836;-67
2022/10/09 13:54:24;;;;;;;;;;;21.10;56.50;;;;;;5019233;28;1964;-66
2022/10/09 13:56:50;;;;;;;;;;;21.10;55.90;;;;;;5016757;28;1317;-66
2022/10/09 13:59:15;;;;;;;;;;;21.10;55.40;;;;;;5007045;28;816;-66
2022/10/09 14:01:41;;;;;;;;;;;21.10;55.60;;;;;;5023404;28;840;-67
2022/10/09 14:04:06;;;;;;;;;;;21.10;55.50;;;;;;5023015;28;868;-67
2022/10/09 14:06:35;;;;;;;;;;;21.10;55.40;;;;;;5023009;28;1241;-67
2022/10/09 14:09:01;;;;;;;;;;;21.10;54.90;;;;;;5022702;28;882;-67
2022/10/09 14:11:26;;;;;;;;;;;21.10;54.70;;;;;;5005630;28;2165;-67
2022/10/09 14:13:51;;;;;;;;;;;21.00;55.20;;;;;;5021237;28;1743;-67
2022/10/09 14:16:17;;;;;;;;;;;21.10;55.30;;;;;;5022701;28;1971;-67
2022/10/09 14:18:42;;;;;;;;;;;21.10;55.60;;;;;;5021616;28;1241;-67
2022/10/09 14:21:11;;;;;;;;;;;21.10;55.40;;;;;;5023493;28;824;-67
2022/10/09 14:23:37;;;;;;;;;;;21.10;55.20;;;;;;5023774;28;1293;-67
2022/10/09 14:26:03;;;;;;;;;;;21.00;55.30;;;;;;5012525;28;943;-67
2022/10/09 14:28:28;;;;;;;;;;;21.10;55.30;;;;;;5023664;28;1405;-67
2022/10/09 14:30:54;;;;;;;;;;;21.00;55.00;;;;;;5019139;28;971;-67
2022/10/09 14:33:19;;;;;;;;;;;21.00;54.70;;;;;;5016896;28;1356;-67
2022/10/09 14:35:44;;;;;;;;;;;21.00;54.40;;;;;;5019100;28;1905;-67
2022/10/09 14:38:10;;;;;;;;;;;21.00;54.10;;;;;;5021837;28;1269;-67
2022/10/09 14:40:40;;;;;;;;;;;21.00;53.90;;;;;;5023463;28;1034;-67